Time;durP1;ratioP1;P1;durP2;ratioP2;P2;SDS_P1;SDS_P2;PMS_P1;PMS_P2;Temp;Humidity;BMP_temperature;BMP_pressure;BME280_temperature;BME280_humidity;BME280_pressure;Samples;Min_cycle;Max_cycle;Signal;HPM_P1;HPM_P2
2022/07/05 00:01:38;;;;;;;0.70;0.70;;;24.10;66.90;;;;;;5068143;28;44070;-70
2022/07/05 00:04:06;;;;;;;0.70;0.70;;;24.30;66.70;;;;;;5068535;28;43908;-70
2022/07/05 00:06:35;;;;;;;0.60;0.60;;;24.30;66.30;;;;;;5068760;28;43989;-70
2022/07/05 00:09:03;;;;;;;0.67;0.67;;;24.30;66.30;;;;;;5068327;28;43929;-70
2022/07/05 00:11:31;;;;;;;0.50;0.50;;;24.20;66.30;;;;;;5068205;28;43788;-69
2022/07/05 00:13:59;;;;;;;0.70;0.70;;;24.00;66.50;;;;;;5068380;28;43813;-69
2022/07/05 00:16:27;;;;;;;0.70;0.70;;;23.90;66.70;;;;;;5068791;28;43944;-69
2022/07/05 00:18:55;;;;;;;0.63;0.63;;;23.80;67.20;;;;;;5068186;28;43879;-69
2022/07/05 00:21:23;;;;;;;0.70;0.70;;;23.60;67.40;;;;;;5068061;28;43944;-69
2022/07/05 00:23:52;;;;;;;0.60;0.60;;;23.50;67.70;;;;;;5068248;28;43988;-70
2022/07/05 00:26:20;;;;;;;0.47;0.47;;;23.40;67.90;;;;;;5068740;28;43392;-69
2022/07/05 00:28:48;;;;;;;0.70;0.70;;;23.40;68.30;;;;;;5067869;28;44019;-70
2022/07/05 00:31:16;;;;;;;0.57;0.57;;;23.30;68.40;;;;;;5067900;28;43949;-69
2022/07/05 00:33:44;;;;;;;0.60;0.60;;;23.30;68.60;;;;;;5066540;28;43931;-69
2022/07/05 00:36:12;;;;;;;0.60;0.60;;;23.30;68.70;;;;;;5068623;28;43875;-69
2022/07/05 00:38:40;;;;;;;0.80;0.80;;;23.20;68.70;;;;;;5068159;28;43904;-70
2022/07/05 00:41:10;;;;;;;0.73;0.73;;;23.20;68.80;;;;;;5067485;28;43988;-69
2022/07/05 00:43:38;;;;;;;0.60;0.60;;;23.20;68.90;;;;;;5066678;28;43940;-69
2022/07/05 00:46:06;;;;;;;0.50;0.50;;;23.20;69.60;;;;;;5067090;28;43846;-69
2022/07/05 00:48:34;;;;;;;0.67;0.67;;;23.20;69.90;;;;;;5067700;28;43998;-69
2022/07/05 00:51:02;;;;;;;0.70;0.70;;;23.20;69.80;;;;;;5065910;28;44822;-69
2022/07/05 00:53:30;;;;;;;0.90;0.60;;;23.30;69.50;;;;;;5067634;28;44026;-69
2022/07/05 00:55:58;;;;;;;0.50;0.50;;;23.40;69.20;;;;;;5068190;28;43927;-69
2022/07/05 00:58:27;;;;;;;0.63;0.63;;;23.60;68.80;;;;;;5066021;28;44015;-70
2022/07/05 01:00:55;;;;;;;0.60;0.60;;;23.70;69.10;;;;;;5067851;28;43963;-70
2022/07/05 01:03:23;;;;;;;0.70;0.70;;;23.90;68.10;;;;;;5067246;28;43944;-70
2022/07/05 01:05:51;;;;;;;0.70;0.70;;;24.00;67.70;;;;;;5067865;28;44020;-72
2022/07/05 01:08:19;;;;;;;0.70;0.70;;;24.10;67.40;;;;;;5065878;28;45876;-70
2022/07/05 01:10:47;;;;;;;0.50;0.50;;;24.20;67.10;;;;;;5065810;28;45115;-70
2022/07/05 01:13:15;;;;;;;0.60;0.60;;;24.30;66.80;;;;;;5067514;28;43970;-70
2022/07/05 01:15:44;;;;;;;0.60;0.60;;;24.30;66.50;;;;;;5067851;28;43344;-69
2022/07/05 01:18:12;;;;;;;0.60;0.60;;;24.40;66.20;;;;;;5067247;28;43960;-70
2022/07/05 01:20:40;;;;;;;0.63;0.63;;;24.30;66.10;;;;;;5067401;28;44041;-70
2022/07/05 01:23:09;;;;;;;0.60;0.60;;;24.20;66.30;;;;;;5067582;28;43786;-70
2022/07/05 01:25:37;;;;;;;0.53;0.53;;;24.00;66.40;;;;;;5067561;28;43940;-70
2022/07/05 01:28:05;;;;;;;0.70;0.70;;;23.90;66.70;;;;;;5065687;28;47111;-71
2022/07/05 01:30:34;;;;;;;0.70;0.70;;;23.70;67.20;;;;;;5065597;28;45009;-70
2022/07/05 01:33:03;;;;;;;0.70;0.70;;;23.60;67.50;;;;;;5066937;28;44004;-70
2022/07/05 01:35:31;;;;;;;0.63;0.63;;;23.50;67.80;;;;;;5067460;28;43954;-71
2022/07/05 01:37:59;;;;;;;0.70;0.70;;;23.40;68.10;;;;;;5066950;28;43920;-69
2022/07/05 01:40:29;;;;;;;0.70;0.70;;;23.40;68.30;;;;;;5066798;28;44053;-69
2022/07/05 01:42:57;;;;;;;0.70;0.70;;;23.30;68.50;;;;;;5066953;28;43854;-69
2022/07/05 01:45:40;;;;;;;0.80;0.80;;;23.30;68.70;;;;;;5067410;28;43521;-70
2022/07/05 01:48:09;;;;;;;0.80;0.80;;;23.30;68.80;;;;;;5066840;28;43962;-69
2022/07/05 01:50:39;;;;;;;0.70;0.70;;;23.20;68.90;;;;;;5066841;28;43444;-70
2022/07/05 01:53:07;;;;;;;0.70;0.70;;;23.20;69.00;;;;;;5066535;28;43971;-70
2022/07/05 01:55:36;;;;;;;0.53;0.53;;;23.20;69.00;;;;;;5065298;28;43951;-70
2022/07/05 01:58:04;;;;;;;0.60;0.60;;;23.20;69.00;;;;;;5065224;28;45618;-70
2022/07/05 02:00:44;;;;;;;0.77;0.77;;;23.20;69.10;;;;;;5065142;28;45952;-70
2022/07/05 02:03:12;;;;;;;0.70;0.70;;;23.20;69.20;;;;;;5066992;28;44138;-70
2022/07/05 02:05:41;;;;;;;0.70;0.70;;;23.10;70.00;;;;;;5066013;28;43595;-70
2022/07/05 02:08:13;;;;;;;0.80;0.80;;;23.20;70.10;;;;;;5066902;28;43972;-71
2022/07/05 02:10:42;;;;;;;0.50;0.50;;;23.20;70.00;;;;;;5065398;28;44855;-70
2022/07/05 02:13:11;;;;;;;0.60;0.60;;;23.40;70.30;;;;;;5065332;28;43954;-70
2022/07/05 02:15:41;;;;;;;0.70;0.70;;;23.50;69.00;;;;;;5065740;28;44019;-70
2022/07/05 02:18:10;;;;;;;0.60;0.60;;;23.70;68.70;;;;;;5065113;28;44114;-70
2022/07/05 02:20:41;;;;;;;0.70;0.70;;;23.90;68.30;;;;;;5065164;28;44926;-70
2022/07/05 02:23:11;;;;;;;0.80;0.80;;;23.90;67.80;;;;;;5065118;28;43910;-69
2022/07/05 02:25:41;;;;;;;0.60;0.60;;;24.10;67.50;;;;;;5065582;28;43471;-70
2022/07/05 02:28:14;;;;;;;0.77;0.77;;;24.20;67.20;;;;;;5064978;28;46150;-70
2022/07/05 02:30:47;;;;;;;0.60;0.60;;;24.30;66.80;;;;;;5064761;28;43971;-69
2022/07/05 02:33:16;;;;;;;0.70;0.70;;;24.30;66.50;;;;;;5064759;28;44067;-70
2022/07/05 02:35:44;;;;;;;0.70;0.70;;;24.30;66.60;;;;;;5065385;28;43923;-70
2022/07/05 02:38:12;;;;;;;0.73;0.73;;;24.10;66.60;;;;;;5059749;28;43847;-70
2022/07/05 02:40:42;;;;;;;0.70;0.70;;;24.00;66.70;;;;;;5064810;28;44185;-70
2022/07/05 02:43:10;;;;;;;0.80;0.80;;;23.80;67.10;;;;;;5058610;28;43370;-70
2022/07/05 02:45:38;;;;;;;0.80;0.80;;;23.70;67.40;;;;;;5058831;28;44110;-70
2022/07/05 02:48:07;;;;;;;0.50;0.50;;;23.60;67.90;;;;;;5058316;28;45455;-71
2022/07/05 02:50:35;;;;;;;0.57;0.57;;;23.50;68.10;;;;;;5059886;28;43848;-69
2022/07/05 02:53:06;;;;;;;0.60;0.60;;;23.40;68.30;;;;;;5058561;28;43931;-70
2022/07/05 02:55:34;;;;;;;0.90;0.90;;;23.30;68.50;;;;;;5064925;28;43975;-70
2022/07/05 02:58:06;;;;;;;0.70;0.70;;;23.30;69.50;;;;;;5064359;28;45953;-70
2022/07/05 03:00:35;;;;;;;0.80;0.80;;;23.30;68.90;;;;;;5064396;28;45994;-69
2022/07/05 03:03:04;;;;;;;0.80;0.80;;;23.20;68.90;;;;;;5064050;28;43409;-70
2022/07/05 03:05:33;;;;;;;0.70;0.70;;;23.20;69.00;;;;;;5065144;28;43834;-70
2022/07/05 03:08:04;;;;;;;0.60;0.60;;;23.20;69.20;;;;;;5067732;28;44048;-70
2022/07/05 03:10:35;;;;;;;0.70;0.70;;;23.20;70.00;;;;;;5067874;28;44466;-69
2022/07/05 03:13:07;;;;;;;0.70;0.70;;;23.20;70.30;;;;;;5067866;28;43882;-69
2022/07/05 03:15:36;;;;;;;0.70;0.70;;;23.20;70.00;;;;;;5068184;28;43889;-69
2022/07/05 03:18:05;;;;;;;0.60;0.60;;;23.30;69.70;;;;;;5067706;28;44106;-71
2022/07/05 03:20:34;;;;;;;0.77;0.77;;;23.50;69.30;;;;;;5067601;28;43663;-70
2022/07/05 03:23:02;;;;;;;0.60;0.60;;;23.60;68.80;;;;;;5069224;28;43338;-69
2022/07/05 03:25:39;;;;;;;0.73;0.73;;;23.70;68.40;;;;;;5068142;28;43979;-70
2022/07/05 03:28:10;;;;;;;0.83;0.70;;;23.90;68.10;;;;;;5067372;28;44040;-70
2022/07/05 03:30:40;;;;;;;0.90;0.90;;;24.00;67.70;;;;;;5061070;28;44024;-70
2022/07/05 03:33:09;;;;;;;0.60;0.60;;;24.10;67.20;;;;;;5064365;28;44166;-70
2022/07/05 03:35:40;;;;;;;0.80;0.80;;;24.20;66.80;;;;;;5060668;28;43994;-70
2022/07/05 03:38:08;;;;;;;0.53;0.53;;;24.30;66.50;;;;;;5068831;28;43787;-70
2022/07/05 03:40:37;;;;;;;0.73;0.73;;;24.40;66.30;;;;;;5067420;28;44848;-70
2022/07/05 03:43:06;;;;;;;0.70;0.70;;;24.20;66.30;;;;;;5067592;28;44058;-69
2022/07/05 03:45:38;;;;;;;1.03;0.60;;;24.10;66.50;;;;;;5067690;28;43950;-70
2022/07/05 03:48:08;;;;;;;0.60;0.60;;;24.00;66.50;;;;;;5062457;28;44865;-70
2022/07/05 03:50:56;;;;;;;0.60;0.60;;;23.80;67.10;;;;;;5063856;28;44818;-70
2022/07/05 03:53:25;;;;;;;0.70;0.70;;;23.60;67.50;;;;;;5068625;28;44066;-70
2022/07/05 03:55:54;;;;;;;0.57;0.57;;;23.50;67.90;;;;;;5067682;28;43944;-71
2022/07/05 03:58:23;;;;;;;0.67;0.67;;;23.40;68.10;;;;;;5067048;28;45229;-70
2022/07/05 04:00:52;;;;;;;0.70;0.70;;;23.30;68.40;;;;;;5067235;28;44006;-70
2022/07/05 04:03:24;;;;;;;0.60;0.60;;;23.30;68.60;;;;;;5066690;28;44112;-69
2022/07/05 04:05:53;;;;;;;0.87;0.70;;;23.20;68.70;;;;;;5067523;28;43940;-70
2022/07/05 04:08:22;;;;;;;0.70;0.70;;;23.20;68.80;;;;;;5068715;28;43669;-69
2022/07/05 04:10:50;;;;;;;0.80;0.80;;;23.20;68.90;;;;;;5068760;28;43786;-70
2022/07/05 04:13:20;;;;;;;0.77;0.77;;;23.20;69.00;;;;;;5067067;28;43379;-70
2022/07/05 04:15:53;;;;;;;0.80;0.80;;;23.10;69.00;;;;;;5067541;28;44119;-70
2022/07/05 04:18:21;;;;;;;0.70;0.70;;;23.10;69.10;;;;;;5066783;28;43902;-69
2022/07/05 04:20:49;;;;;;;0.83;0.83;;;23.10;69.10;;;;;;5066906;28;43996;-70
2022/07/05 04:23:17;;;;;;;0.90;0.90;;;23.10;69.70;;;;;;5066827;28;43779;-70
2022/07/05 04:25:45;;;;;;;0.90;0.90;;;23.10;70.20;;;;;;5067212;28;44098;-70
2022/07/05 04:28:22;;;;;;;0.83;0.83;;;23.20;70.20;;;;;;5066857;28;45985;-70
2022/07/05 04:30:56;;;;;;;0.90;0.90;;;23.30;69.80;;;;;;5066764;28;44894;-70
2022/07/05 04:33:26;;;;;;;0.80;0.80;;;23.40;69.30;;;;;;5066873;28;43405;-69
2022/07/05 04:35:56;;;;;;;0.73;0.73;;;23.50;68.90;;;;;;5067016;28;43483;-70
2022/07/05 04:38:24;;;;;;;0.70;0.70;;;23.60;69.10;;;;;;5066609;28;44880;-70
2022/07/05 04:40:54;;;;;;;0.90;0.90;;;23.80;68.00;;;;;;5066500;28;44497;-70
2022/07/05 04:43:24;;;;;;;1.70;0.93;;;23.90;67.40;;;;;;5066688;28;43961;-70
2022/07/05 04:45:52;;;;;;;0.90;0.90;;;24.00;66.90;;;;;;5068417;28;43998;-70
2022/07/05 04:48:26;;;;;;;0.80;0.80;;;24.10;66.70;;;;;;5066400;28;45537;-70
2022/07/05 04:50:55;;;;;;;0.90;0.90;;;24.20;66.30;;;;;;5066338;28;45296;-71
2022/07/05 04:53:24;;;;;;;0.90;0.90;;;24.30;66.10;;;;;;5066495;28;44065;-70
2022/07/05 04:55:51;;;;;;;0.90;0.90;;;24.40;66.70;;;;;;5068246;28;43959;-70
2022/07/05 04:58:19;;;;;;;1.20;1.10;;;24.30;66.10;;;;;;5067666;28;44004;-70
2022/07/05 05:00:47;;;;;;;0.90;0.90;;;24.10;66.20;;;;;;5067968;28;43774;-70
2022/07/05 05:03:15;;;;;;;0.93;0.93;;;24.00;66.40;;;;;;5067840;28;44000;-70
2022/07/05 05:05:45;;;;;;;0.80;0.80;;;23.80;67.00;;;;;;5068276;28;44106;-70
2022/07/05 05:08:13;;;;;;;1.00;1.00;;;23.70;67.50;;;;;;5067470;28;43849;-70
2022/07/05 05:10:41;;;;;;;0.90;0.90;;;23.50;67.70;;;;;;5067655;28;44051;-70
2022/07/05 05:13:09;;;;;;;0.87;0.87;;;23.50;68.10;;;;;;5068089;28;44416;-69
2022/07/05 05:15:37;;;;;;;0.80;0.80;;;23.40;68.30;;;;;;5068019;28;43947;-70
2022/07/05 05:18:05;;;;;;;0.77;0.77;;;23.30;69.20;;;;;;5065723;28;44155;-71
2022/07/05 05:20:33;;;;;;;0.73;0.73;;;23.30;68.70;;;;;;5067389;28;43952;-70
2022/07/05 05:23:09;;;;;;;0.80;0.80;;;23.20;68.80;;;;;;5067580;28;43409;-70
2022/07/05 05:25:36;;;;;;;0.90;0.90;;;23.20;68.90;;;;;;5067813;28;43490;-70
2022/07/05 05:28:05;;;;;;;0.90;0.90;;;23.20;69.00;;;;;;5067075;28;44864;-71
2022/07/05 05:30:33;;;;;;;0.80;0.80;;;23.10;69.10;;;;;;5066892;28;44007;-70
2022/07/05 05:33:01;;;;;;;0.90;0.90;;;23.10;69.10;;;;;;5067412;28;43936;-71
2022/07/05 05:35:29;;;;;;;1.00;1.00;;;23.10;69.20;;;;;;5067735;28;43901;-70
2022/07/05 05:37:57;;;;;;;0.90;0.90;;;23.10;69.20;;;;;;5066994;28;43937;-70
2022/07/05 05:40:26;;;;;;;0.83;0.83;;;23.10;69.40;;;;;;5066995;28;43989;-70
2022/07/05 05:42:55;;;;;;;1.10;1.10;;;23.10;70.10;;;;;;5065557;28;43924;-70
2022/07/05 05:45:23;;;;;;;1.23;0.60;;;23.10;70.20;;;;;;5067594;28;43897;-71
2022/07/05 05:47:52;;;;;;;0.90;0.90;;;23.20;70.10;;;;;;5067103;28;45134;-69
2022/07/05 05:50:21;;;;;;;0.87;0.87;;;23.40;69.80;;;;;;5065440;28;43837;-70
2022/07/05 05:52:49;;;;;;;1.00;1.00;;;23.50;69.30;;;;;;5066843;28;43960;-70
2022/07/05 05:55:17;;;;;;;0.90;0.90;;;23.60;68.80;;;;;;5067686;28;43977;-70
2022/07/05 05:57:46;;;;;;;1.07;0.90;;;23.80;68.30;;;;;;5067023;28;44966;-71
2022/07/05 06:00:15;;;;;;;0.93;0.93;;;23.90;67.90;;;;;;5067007;28;43949;-70
2022/07/05 06:02:43;;;;;;;0.83;0.83;;;24.00;67.50;;;;;;5066647;28;43966;-69
2022/07/05 06:05:12;;;;;;;0.80;0.80;;;24.10;67.10;;;;;;5067530;28;43905;-70
2022/07/05 06:07:50;;;;;;;0.97;0.97;;;24.30;66.80;;;;;;5067095;28;43868;-70
2022/07/05 06:10:19;;;;;;;0.70;0.70;;;24.30;66.50;;;;;;5060260;28;43912;-70
2022/07/05 06:12:48;;;;;;;0.87;0.87;;;24.30;66.40;;;;;;5060269;28;43825;-70
2022/07/05 06:15:17;;;;;;;0.80;0.80;;;24.20;66.70;;;;;;5060988;28;43921;-69
2022/07/05 06:17:45;;;;;;;0.73;0.73;;;24.10;67.00;;;;;;5065231;28;45898;-71
2022/07/05 06:20:14;;;;;;;0.83;0.83;;;23.90;67.30;;;;;;5066916;28;43461;-70
2022/07/05 06:22:42;;;;;;;0.77;0.77;;;23.70;67.60;;;;;;5066988;28;44269;-71
2022/07/05 06:25:10;;;;;;;0.80;0.80;;;23.60;67.90;;;;;;5067197;28;43837;-69
2022/07/05 06:27:56;;;;;;;0.70;0.70;;;23.50;68.20;;;;;;5065135;28;46469;-70
2022/07/05 06:30:24;;;;;;;0.90;0.90;;;23.40;68.60;;;;;;5066239;28;44544;-70
2022/07/05 06:32:53;;;;;;;0.80;0.80;;;23.30;68.70;;;;;;5066449;28;43973;-70
2022/07/05 06:35:21;;;;;;;0.80;0.80;;;23.30;69.00;;;;;;5066861;28;44057;-70
2022/07/05 06:37:51;;;;;;;0.77;0.77;;;23.20;69.00;;;;;;5066416;28;43924;-70
2022/07/05 06:40:20;;;;;;;0.80;0.80;;;23.20;69.20;;;;;;5066243;28;43970;-70
2022/07/05 06:42:49;;;;;;;0.90;0.90;;;23.20;69.30;;;;;;5069469;28;43454;-71
2022/07/05 06:45:18;;;;;;;1.00;1.00;;;23.10;69.30;;;;;;5068820;28;43973;-70
2022/07/05 06:47:54;;;;;;;0.70;0.70;;;23.10;69.40;;;;;;5069892;28;43770;-69
2022/07/05 06:50:21;;;;;;;0.87;0.87;;;23.10;69.60;;;;;;5069912;28;44046;-70
2022/07/05 06:52:49;;;;;;;0.90;0.90;;;23.10;70.30;;;;;;5069660;28;43966;-70
2022/07/05 06:55:17;;;;;;;0.80;0.80;;;23.20;70.50;;;;;;5070239;28;44001;-71
2022/07/05 06:57:46;;;;;;;0.80;0.80;;;23.20;70.30;;;;;;5069618;28;43868;-71
2022/07/05 07:00:36;;;;;;;0.90;0.90;;;23.30;70.00;;;;;;5069625;28;44067;-71
2022/07/05 07:03:24;;;;;;;1.00;1.00;;;23.40;69.50;;;;;;5069387;28;43946;-69
2022/07/05 07:06:12;;;;;;;0.80;0.80;;;23.60;69.10;;;;;;5068726;28;43487;-71
2022/07/05 07:11:26;;;;;;;0.90;0.90;;;23.90;68.20;;;;;;5065387;28;43336;-70
2022/07/05 07:13:54;;;;;;;0.83;0.83;;;24.00;67.70;;;;;;5069550;28;43956;-70
2022/07/05 07:16:23;;;;;;;0.80;0.80;;;24.10;67.10;;;;;;5069965;28;43964;-70
2022/07/05 07:18:52;;;;;;;0.70;0.70;;;24.20;66.90;;;;;;5069540;28;43611;-71
2022/07/05 07:21:40;;;;;;;0.70;0.70;;;24.30;66.70;;;;;;5069248;28;44618;-70
2022/07/05 07:24:09;;;;;;;0.80;0.80;;;24.30;66.60;;;;;;5069395;28;44073;-71
2022/07/05 07:29:19;;;;;;;0.70;0.70;;;24.00;67.00;;;;;;5068756;28;43661;-70
2022/07/05 07:31:48;;;;;;;0.70;0.70;;;23.90;67.40;;;;;;5069193;28;44037;-72
2022/07/05 07:34:16;;;;;;;0.90;0.90;;;23.70;67.60;;;;;;5069002;28;43866;-70
2022/07/05 07:36:44;;;;;;;0.70;0.70;;;23.60;67.90;;;;;;5069786;28;44024;-70
2022/07/05 07:39:12;;;;;;;0.80;0.80;;;23.50;68.30;;;;;;5069198;28;44957;-70
2022/07/05 07:41:40;;;;;;;0.90;0.90;;;23.40;68.60;;;;;;5069038;28;43445;-70
2022/07/05 07:44:08;;;;;;;0.70;0.70;;;23.30;68.80;;;;;;5069101;28;44095;-70
2022/07/05 07:46:36;;;;;;;0.80;0.80;;;23.30;68.90;;;;;;5069265;28;44071;-70
2022/07/05 07:49:06;;;;;;;0.60;0.60;;;23.20;69.00;;;;;;5069038;28;43661;-71
2022/07/05 07:51:33;;;;;;;0.83;0.83;;;23.20;69.10;;;;;;5068132;28;43968;-69
2022/07/05 07:54:02;;;;;;;0.87;0.87;;;23.20;69.20;;;;;;5069011;28;43935;-69
2022/07/05 07:56:29;;;;;;;0.87;0.80;;;23.10;69.20;;;;;;5069244;28;43988;-71
2022/07/05 07:58:57;;;;;;;0.87;0.87;;;23.10;69.40;;;;;;5068714;28;43779;-70
2022/07/05 08:01:26;;;;;;;0.70;0.70;;;23.10;69.50;;;;;;5068781;28;44014;-70
2022/07/05 08:03:54;;;;;;;0.60;0.60;;;23.10;69.50;;;;;;5068490;28;43395;-69
2022/07/05 08:06:23;;;;;;;0.83;0.83;;;23.10;70.00;;;;;;5069032;28;43300;-71
2022/07/05 08:08:51;;;;;;;0.70;0.70;;;23.10;70.30;;;;;;5068386;28;43926;-69
2022/07/05 08:11:19;;;;;;;0.80;0.80;;;23.20;70.30;;;;;;5068543;28;43929;-71
2022/07/05 08:13:47;;;;;;;0.77;0.77;;;23.20;70.00;;;;;;5068592;28;43846;-70
2022/07/05 08:16:15;;;;;;;0.80;0.80;;;23.30;69.60;;;;;;5069066;28;43919;-71
2022/07/05 08:21:35;;;;;;;0.80;0.80;;;23.60;68.40;;;;;;5068427;28;43973;-70
2022/07/05 08:24:04;;;;;;;0.73;0.73;;;23.80;67.70;;;;;;5068370;28;43930;-70
2022/07/05 08:26:31;;;;;;;0.90;0.90;;;23.90;67.00;;;;;;5068871;28;43993;-70
2022/07/05 08:29:01;;;;;;;0.80;0.80;;;24.00;66.60;;;;;;5068290;28;43959;-69
2022/07/05 08:31:38;;;;;;;0.80;0.80;;;24.10;66.30;;;;;;5068277;28;43995;-70
2022/07/05 08:34:06;;;;;;;0.90;0.90;;;24.20;65.90;;;;;;5067974;28;44467;-70
2022/07/05 08:36:35;;;;;;;0.80;0.80;;;24.20;65.70;;;;;;5068880;28;43944;-70
2022/07/05 08:39:03;;;;;;;0.70;0.70;;;24.30;65.80;;;;;;5068168;28;43950;-70
2022/07/05 08:41:32;;;;;;;0.70;0.70;;;24.10;66.10;;;;;;5068033;28;43762;-71
2022/07/05 08:44:00;;;;;;;0.70;0.70;;;24.00;66.60;;;;;;5056765;28;44044;-70
2022/07/05 08:46:28;;;;;;;0.77;0.77;;;23.80;66.70;;;;;;5062040;28;43986;-69
2022/07/05 08:48:56;;;;;;;0.80;0.80;;;23.70;67.10;;;;;;5061295;28;43842;-70
2022/07/05 08:51:24;;;;;;;0.80;0.80;;;23.50;67.10;;;;;;5061516;28;44044;-70
2022/07/05 08:53:55;;;;;;;0.80;0.80;;;23.50;67.30;;;;;;5061545;28;43454;-70
2022/07/05 08:56:23;;;;;;;0.70;0.70;;;23.40;67.40;;;;;;5062111;28;43944;-70
2022/07/05 08:59:11;;;;;;;0.73;0.73;;;23.30;67.50;;;;;;5067885;28;43958;-70
2022/07/05 09:01:39;;;;;;;0.80;0.80;;;23.30;67.90;;;;;;5067631;28;44015;-71
2022/07/05 09:04:09;;;;;;;0.80;0.80;;;23.20;68.00;;;;;;5066398;28;43963;-69
2022/07/05 09:06:38;;;;;;;0.80;0.80;;;23.20;68.20;;;;;;5068188;28;44011;-71
2022/07/05 09:09:08;;;;;;;0.80;0.80;;;23.20;68.40;;;;;;5067668;28;43955;-70
2022/07/05 09:11:37;;;;;;;0.80;0.80;;;23.20;68.30;;;;;;5067652;28;43906;-70
2022/07/05 09:14:06;;;;;;;0.70;0.70;;;23.20;68.30;;;;;;5067526;28;43433;-70
2022/07/05 09:16:55;;;;;;;0.67;0.67;;;23.10;68.30;;;;;;5068022;28;43956;-71
2022/07/05 09:19:22;;;;;;;0.90;0.90;;;23.10;68.30;;;;;;5061293;28;43803;-70
2022/07/05 09:21:55;;;;;;;0.70;0.70;;;23.10;68.60;;;;;;5061280;28;44120;-70
2022/07/05 09:24:25;;;;;;;1.00;1.00;;;23.00;69.20;;;;;;5061810;28;43987;-70
2022/07/05 09:26:53;;;;;;;0.70;0.70;;;23.10;69.40;;;;;;5067981;28;43462;-69
2022/07/05 09:29:21;;;;;;;0.80;0.80;;;23.20;69.30;;;;;;5067153;28;44118;-71
2022/07/05 09:32:09;;;;;;;0.73;0.73;;;23.30;68.80;;;;;;5067293;28;44030;-70
2022/07/05 09:34:37;;;;;;;0.80;0.80;;;23.40;68.00;;;;;;5067290;28;44022;-70
2022/07/05 09:37:05;;;;;;;0.73;0.73;;;23.50;67.40;;;;;;5067767;28;43746;-71
2022/07/05 09:39:38;;;;;;;3.00;1.17;;;23.70;67.00;;;;;;5067025;28;43876;-69
2022/07/05 09:42:20;;;;;;;0.80;0.80;;;23.80;67.70;;;;;;5067224;28;44081;-70
2022/07/05 09:44:49;;;;;;;0.80;0.80;;;23.90;66.50;;;;;;5065670;28;43909;-71
2022/07/05 09:47:17;;;;;;;0.70;0.70;;;24.00;66.20;;;;;;5067700;28;43999;-71
2022/07/05 09:49:47;;;;;;;1.00;0.87;;;24.10;65.90;;;;;;5060660;28;43611;-70
2022/07/05 09:52:35;;;;;;;0.90;0.90;;;24.20;65.50;;;;;;5063281;28;44011;-70
2022/07/05 09:55:08;;;;;;;0.83;0.83;;;24.10;65.40;;;;;;5067035;28;44354;-70
2022/07/05 09:57:38;;;;;;;0.90;0.90;;;24.00;65.80;;;;;;5065993;28;43963;-71
2022/07/05 10:00:08;;;;;;;0.97;0.97;;;23.90;66.10;;;;;;5066775;28;43962;-71
2022/07/05 10:02:37;;;;;;;0.70;0.70;;;23.70;66.30;;;;;;5066582;28;43985;-70
2022/07/05 10:05:10;;;;;;;0.67;0.67;;;23.60;66.60;;;;;;5066984;28;43896;-69
2022/07/05 10:07:39;;;;;;;0.80;0.80;;;23.50;66.90;;;;;;5067235;28;43998;-70
2022/07/05 10:10:09;;;;;;;0.77;0.77;;;23.40;67.10;;;;;;5066958;28;43926;-70
2022/07/05 10:12:37;;;;;;;0.67;0.67;;;23.30;67.40;;;;;;5066912;28;44011;-70
2022/07/05 10:15:07;;;;;;;0.73;0.73;;;23.30;67.70;;;;;;5066454;28;43469;-70
2022/07/05 10:17:37;;;;;;;0.80;0.80;;;23.20;67.70;;;;;;5067301;28;43743;-71
2022/07/05 10:20:06;;;;;;;0.90;0.90;;;23.20;67.80;;;;;;5066562;28;43564;-71
2022/07/05 10:22:34;;;;;;;0.90;0.90;;;23.10;67.90;;;;;;5066615;28;43882;-70
2022/07/05 10:25:02;;;;;;;0.67;0.50;;;23.10;68.00;;;;;;5065243;28;43908;-70
2022/07/05 10:27:32;;;;;;;0.73;0.73;;;23.10;68.00;;;;;;5066904;28;43584;-70
2022/07/05 10:30:00;;;;;;;0.70;0.70;;;23.10;68.10;;;;;;5066427;28;43900;-70
2022/07/05 10:32:28;;;;;;;0.60;0.60;;;23.10;68.30;;;;;;5066475;28;43912;-69
2022/07/05 10:34:57;;;;;;;0.60;0.60;;;23.00;68.20;;;;;;5066585;28;43955;-70
2022/07/05 10:37:27;;;;;;;0.80;0.80;;;23.10;68.30;;;;;;5066939;28;43938;-71
2022/07/05 10:39:57;;;;;;;0.80;0.80;;;23.00;68.70;;;;;;5059855;28;43975;-70
2022/07/05 10:42:28;;;;;;;0.60;0.60;;;23.00;68.70;;;;;;5064728;28;44823;-71
2022/07/05 10:44:57;;;;;;;0.80;0.80;;;23.10;68.70;;;;;;5066375;28;43889;-70
2022/07/05 10:47:27;;;;;;;0.90;0.90;;;23.10;68.00;;;;;;5067087;28;44463;-69
2022/07/05 10:50:02;;;;;;;0.80;0.80;;;23.30;67.50;;;;;;5066312;28;44109;-71
2022/07/05 10:52:30;;;;;;;0.97;0.80;;;23.40;66.40;;;;;;5066292;28;44000;-70
2022/07/05 10:55:18;;;;;;;0.83;0.83;;;23.60;65.80;;;;;;5066161;28;43980;-70
2022/07/05 10:58:01;;;;;;;0.90;0.90;;;23.70;65.70;;;;;;5066672;28;44083;-70
2022/07/05 11:00:31;;;;;;;1.00;1.00;;;23.80;65.60;;;;;;5066093;28;43927;-70
2022/07/05 11:03:07;;;;;;;0.87;0.87;;;23.90;65.40;;;;;;5065874;28;43958;-70
2022/07/05 11:05:35;;;;;;;0.87;0.87;;;24.00;65.30;;;;;;5066087;28;43932;-71
2022/07/05 11:08:11;;;;;;;0.70;0.70;;;24.10;65.00;;;;;;5066589;28;43921;-71
2022/07/05 11:10:58;;;;;;;0.90;0.90;;;24.00;65.10;;;;;;5066040;28;43769;-70
2022/07/05 11:13:37;;;;;;;0.90;0.90;;;23.90;65.50;;;;;;5065838;28;44010;-70
2022/07/05 11:16:24;;;;;;;0.83;0.83;;;23.70;65.80;;;;;;5059474;28;43963;-69
2022/07/05 11:18:53;;;;;;;1.00;1.00;;;23.60;66.00;;;;;;5066434;28;43324;-70
2022/07/05 11:21:21;;;;;;;0.73;0.73;;;23.50;66.30;;;;;;5065793;28;45184;-70
2022/07/05 11:23:49;;;;;;;0.90;0.90;;;23.40;66.60;;;;;;5065770;28;44337;-70
2022/07/05 11:26:25;;;;;;;0.93;0.93;;;23.30;67.50;;;;;;5066253;28;43955;-70
2022/07/05 11:28:53;;;;;;;0.90;0.90;;;23.20;67.20;;;;;;5069594;28;43952;-70
2022/07/05 11:31:43;;;;;;;0.70;0.70;;;23.20;67.40;;;;;;5069394;28;43914;-70
2022/07/05 11:34:14;;;;;;;0.80;0.80;;;23.10;67.60;;;;;;5069281;28;43953;-70
2022/07/05 11:36:42;;;;;;;0.80;0.80;;;23.10;67.70;;;;;;5069558;28;43987;-70
2022/07/05 11:39:30;;;;;;;0.90;0.90;;;23.10;67.70;;;;;;5069331;28;44025;-70
2022/07/05 11:41:58;;;;;;;0.80;0.80;;;23.10;68.10;;;;;;5068917;28;43897;-70
2022/07/05 11:44:26;;;;;;;0.67;0.67;;;23.10;68.20;;;;;;5069143;28;43979;-70
2022/07/05 11:47:16;;;;;;;0.70;0.70;;;23.00;68.20;;;;;;5069459;28;44035;-70
2022/07/05 11:49:53;;;;;;;0.80;0.80;;;23.10;68.20;;;;;;5069382;28;43971;-70
2022/07/05 11:52:25;;;;;;;0.70;0.70;;;23.00;69.20;;;;;;5069065;28;43987;-70
2022/07/05 11:54:53;;;;;;;0.80;0.80;;;23.00;69.20;;;;;;5068773;28;43832;-71
2022/07/05 11:57:21;;;;;;;0.90;0.90;;;23.10;69.30;;;;;;5069559;28;43941;-70
2022/07/05 11:59:49;;;;;;;0.83;0.83;;;23.20;69.00;;;;;;5068968;28;44022;-70
2022/07/05 12:02:19;;;;;;;0.80;0.80;;;23.30;68.50;;;;;;5068409;28;43950;-70
2022/07/05 12:04:48;;;;;;;0.97;0.80;;;23.40;68.00;;;;;;5068734;28;43944;-70
2022/07/05 12:07:25;;;;;;;0.80;0.80;;;23.50;67.40;;;;;;5068914;28;44044;-70
2022/07/05 12:12:47;;;;;;;0.70;0.70;;;23.80;66.60;;;;;;5068311;28;43891;-70
2022/07/05 12:15:16;;;;;;;0.80;0.80;;;23.90;66.40;;;;;;5062368;28;43882;-70
2022/07/05 12:17:46;;;;;;;0.90;0.90;;;24.00;66.00;;;;;;5062384;28;43917;-70
2022/07/05 12:20:14;;;;;;;0.80;0.80;;;24.10;65.50;;;;;;5062593;28;43881;-69
2022/07/05 12:22:43;;;;;;;0.80;0.80;;;24.10;65.30;;;;;;5068463;28;44997;-70
2022/07/05 12:25:13;;;;;;;0.70;0.70;;;24.10;65.30;;;;;;5068579;28;43922;-70
2022/07/05 12:27:41;;;;;;;0.80;0.80;;;24.00;65.70;;;;;;5068650;28;43936;-70
2022/07/05 12:30:10;;;;;;;1.13;0.80;;;23.90;65.90;;;;;;5068753;28;43992;-70
2022/07/05 12:32:55;;;;;;;0.80;0.80;;;23.70;66.20;;;;;;5068321;28;43611;-71
2022/07/05 12:35:30;;;;;;;0.70;0.70;;;23.60;66.60;;;;;;5066902;28;44769;-70
2022/07/05 12:38:03;;;;;;;0.80;0.80;;;23.40;66.90;;;;;;5066724;28;43373;-69
2022/07/05 12:40:31;;;;;;;0.70;0.70;;;23.30;67.10;;;;;;5068399;28;43455;-71
2022/07/05 12:43:03;;;;;;;0.70;0.70;;;23.30;67.40;;;;;;5068126;28;44035;-70
2022/07/05 12:45:32;;;;;;;0.93;0.93;;;23.20;67.50;;;;;;5067898;28;43918;-70
2022/07/05 12:48:03;;;;;;;0.73;0.73;;;23.20;67.80;;;;;;5066856;28;43396;-70
2022/07/05 12:50:45;;;;;;;0.70;0.70;;;23.10;67.90;;;;;;5068594;28;43998;-70
2022/07/05 12:59:28;;;;;;;0.70;0.70;;;23.00;67.90;;;;;;5068085;28;43451;-70
2022/07/05 13:01:56;;;;;;;0.70;0.70;;;23.00;68.00;;;;;;5067762;28;43524;-70
2022/07/05 13:04:25;;;;;;;0.90;0.90;;;23.00;68.10;;;;;;5067510;28;44013;-69
2022/07/05 13:06:54;;;;;;;0.70;0.70;;;23.00;68.20;;;;;;5065979;28;44741;-70
2022/07/05 13:09:34;;;;;;;0.80;0.80;;;23.00;68.10;;;;;;5067935;28;43793;-70
2022/07/05 13:12:12;;;;;;;1.00;0.90;;;23.00;68.90;;;;;;5062047;28;44035;-70
2022/07/05 13:14:41;;;;;;;0.70;0.70;;;23.00;69.10;;;;;;5067498;28;43940;-71
2022/07/05 13:17:09;;;;;;;0.90;0.90;;;23.10;69.20;;;;;;5067513;28;43726;-70
2022/07/05 13:19:39;;;;;;;1.00;1.00;;;23.20;68.70;;;;;;5067723;28;44018;-70
2022/07/05 13:22:07;;;;;;;0.77;0.77;;;23.30;67.90;;;;;;5068051;28;44000;-71